createdAt,value
2022-12-08T00:01:44.673Z,73.22
2022-12-08T00:07:24.154Z,72.77
2022-12-08T00:12:44.656Z,72.86
2022-12-08T00:18:05.290Z,72.84
2022-12-08T00:23:25.913Z,72.93
2022-12-08T00:28:46.339Z,72.72
2022-12-08T00:34:07.576Z,73.05
2022-12-08T00:39:28.056Z,73.03
2022-12-08T00:44:48.585Z,73.44
2022-12-08T00:50:10.201Z,73.51
2022-12-08T00:55:30.626Z,73.15
2022-12-08T01:00:51.665Z,73.61
2022-12-08T01:06:12.417Z,73.35
2022-12-08T01:11:33.513Z,73.49
2022-12-08T01:16:54.020Z,73.25
2022-12-08T01:22:14.854Z,73.20
2022-12-08T01:27:35.387Z,73.54
2022-12-08T01:32:56.660Z,73.51
2022-12-08T01:38:17.419Z,73.83
2022-12-08T01:44:13.419Z,73.77
2022-12-08T01:49:35.371Z,73.88
2022-12-08T01:55:02.531Z,74.14
2022-12-08T02:00:24.474Z,74.42
2022-12-08T02:05:46.391Z,74.38
2022-12-08T02:11:12.062Z,74.16
2022-12-08T02:16:46.868Z,74.26
2022-12-08T02:22:14.809Z,74.32
2022-12-08T02:27:41.689Z,74.38
2022-12-08T02:33:23.431Z,74.59
2022-12-08T02:38:53.892Z,74.53
2022-12-08T02:44:27.309Z,74.70
2022-12-08T02:49:47.946Z,74.56
2022-12-08T02:55:28.122Z,74.45
2022-12-08T03:01:04.544Z,74.45
2022-12-08T03:06:34.949Z,74.60
2022-12-08T03:12:18.353Z,74.89
2022-12-08T03:17:44.083Z,75.10
2022-12-08T03:23:08.029Z,75.44
2022-12-08T03:28:28.779Z,75.66
2022-12-08T03:33:52.891Z,75.49
2022-12-08T03:39:13.493Z,75.48
2022-12-08T03:44:34.186Z,75.57
2022-12-08T03:49:54.887Z,75.45
2022-12-08T03:55:16.604Z,75.29
2022-12-08T04:00:37.317Z,75.33
2022-12-08T04:05:58.815Z,75.37
2022-12-08T04:11:20.026Z,75.44
2022-12-08T04:16:40.912Z,75.53
2022-12-08T04:22:01.236Z,75.49
2022-12-08T04:27:21.894Z,75.54
2022-12-08T04:32:47.327Z,75.64
2022-12-08T04:38:09.060Z,75.74
2022-12-08T04:43:30.078Z,75.49
2022-12-08T04:48:50.473Z,75.64
2022-12-08T04:54:11.202Z,75.57
2022-12-08T04:59:31.721Z,75.72
2022-12-08T05:04:52.561Z,75.65
2022-12-08T05:10:13.306Z,75.55
2022-12-08T05:15:34.107Z,75.76
2022-12-08T05:20:55.011Z,75.79
2022-12-08T05:26:15.377Z,75.96
2022-12-08T05:31:36.223Z,75.99
2022-12-08T05:36:56.736Z,75.98
2022-12-08T05:42:23.175Z,75.83
2022-12-08T05:47:45.234Z,75.82
2022-12-08T05:53:05.998Z,75.80
2022-12-08T05:58:26.777Z,75.52
2022-12-08T06:03:47.377Z,75.21
2022-12-08T06:09:09.334Z,74.98
2022-12-08T06:14:29.887Z,74.77
2022-12-08T06:19:50.721Z,74.76
2022-12-08T06:25:11.133Z,74.60
2022-12-08T06:30:32.012Z,74.80
2022-12-08T06:35:53.251Z,74.79
2022-12-08T06:41:14.869Z,74.91
2022-12-08T06:46:35.424Z,75.13
2022-12-08T06:51:55.906Z,75.02
2022-12-08T06:57:16.600Z,75.23
2022-12-08T07:02:36.982Z,75.02
2022-12-08T07:07:57.939Z,75.06
2022-12-08T07:13:18.534Z,74.99
2022-12-08T07:18:39.509Z,75.00
2022-12-08T07:23:59.853Z,75.07
2022-12-08T07:29:26.095Z,75.09
2022-12-08T07:34:47.378Z,75.05
2022-12-08T07:40:09.707Z,74.98
2022-12-08T07:45:31.843Z,74.90
2022-12-08T07:51:00.126Z,74.89
2022-12-08T07:56:20.891Z,75.19
2022-12-08T08:01:45.317Z,75.19
2022-12-08T08:07:06.520Z,75.12
2022-12-08T08:12:32.131Z,75.04
2022-12-08T08:17:53.493Z,75.13
2022-12-08T08:23:14.245Z,75.34
2022-12-08T08:28:34.927Z,75.54
2022-12-08T08:33:56.917Z,75.32
2022-12-08T08:39:17.673Z,75.25
2022-12-08T08:44:38.946Z,75.16
2022-12-08T08:49:59.370Z,74.82
2022-12-08T08:55:20.183Z,74.91
2022-12-08T09:00:40.530Z,74.70
2022-12-08T09:06:01.370Z,74.55
2022-12-08T09:11:23.493Z,74.60
2022-12-08T09:16:45.357Z,74.38
2022-12-08T09:22:06.305Z,74.32
2022-12-08T09:27:26.987Z,74.32
2022-12-08T09:32:47.612Z,74.28
2022-12-08T09:38:08.021Z,73.93
2022-12-08T09:43:51.521Z,71.87
2022-12-08T09:49:16.421Z,70.50
2022-12-08T09:54:37.160Z,69.38
2022-12-08T10:00:03.442Z,68.51
2022-12-08T10:05:27.750Z,67.52
2022-12-08T10:10:57.886Z,66.94
2022-12-08T10:16:30.383Z,66.83
2022-12-08T10:21:53.164Z,64.88
2022-12-08T10:27:13.510Z,56.91
2022-12-08T10:32:35.267Z,48.54
2022-12-08T10:38:01.012Z,49.04
2022-12-08T10:43:27.336Z,54.45
2022-12-08T10:48:54.274Z,58.01
2022-12-08T10:54:28.163Z,60.14
2022-12-08T10:59:49.218Z,60.10
2022-12-08T11:05:16.448Z,60.55
2022-12-08T11:10:43.112Z,61.42
2022-12-08T11:16:06.382Z,61.40
2022-12-08T11:21:37.203Z,63.31
2022-12-08T11:27:03.441Z,66.53
2022-12-08T11:32:24.316Z,67.61
2022-12-08T11:37:45.099Z,67.58
2022-12-08T11:43:15.463Z,67.61
2022-12-08T11:49:04.367Z,68.01
2022-12-08T11:54:34.993Z,67.98
2022-12-08T11:59:57.997Z,66.49
2022-12-08T12:06:05.278Z,65.33
2022-12-08T12:11:46.617Z,64.33
2022-12-08T12:17:25.475Z,66.14
2022-12-08T12:22:50.720Z,65.42
2022-12-08T12:28:13.232Z,64.52
2022-12-08T12:33:35.430Z,61.13
2022-12-08T12:39:03.393Z,57.89
2022-12-08T12:44:37.654Z,57.66
2022-12-08T12:50:08.276Z,59.58
2022-12-08T12:55:59.442Z,60.40
2022-12-08T13:01:20.017Z,61.38
2022-12-08T13:06:48.378Z,61.83
2022-12-08T13:12:12.329Z,63.28
2022-12-08T13:17:36.288Z,65.40
2022-12-08T13:23:13.320Z,66.43
2022-12-08T13:28:34.007Z,68.04
2022-12-08T13:33:54.649Z,67.92
2022-12-08T13:39:22.759Z,67.87
2022-12-08T13:57:03.932Z,68.88
2022-12-08T14:02:33.073Z,68.72
2022-12-08T14:07:56.205Z,68.80
2022-12-08T14:13:17.259Z,69.12
2022-12-08T14:18:37.945Z,69.34
2022-12-08T14:24:03.159Z,69.76
2022-12-08T14:29:35.586Z,69.79
2022-12-08T14:35:18.234Z,69.87
2022-12-08T14:40:41.821Z,70.19
2022-12-08T14:46:06.125Z,70.38
2022-12-08T14:51:28.781Z,70.26
2022-12-08T14:56:55.415Z,70.15
2022-12-08T15:02:16.067Z,70.33
2022-12-08T15:07:42.616Z,70.57
2022-12-08T15:13:25.459Z,70.27
2022-12-08T15:19:02.363Z,70.11
2022-12-08T15:24:26.315Z,69.96
2022-12-08T15:29:47.996Z,70.11
2022-12-08T15:35:08.793Z,70.05
2022-12-08T15:40:29.187Z,70.04
2022-12-08T15:46:00.734Z,70.15
2022-12-08T15:51:21.823Z,70.12
2022-12-08T15:57:17.945Z,70.31
2022-12-08T16:02:43.131Z,70.69
2022-12-08T16:08:38.232Z,71.13
2022-12-08T16:14:03.475Z,71.14
2022-12-08T16:19:37.408Z,71.46
2022-12-08T16:25:14.657Z,71.51
2022-12-08T16:30:38.588Z,71.58
2022-12-08T16:35:59.327Z,72.03
2022-12-08T16:41:38.073Z,72.14
2022-12-08T16:46:58.403Z,71.84
2022-12-08T16:52:19.420Z,71.78
2022-12-08T16:57:40.586Z,72.13
2022-12-08T17:03:01.262Z,72.18
2022-12-08T17:08:22.322Z,72.29
2022-12-08T17:13:43.335Z,72.41
2022-12-08T17:19:03.937Z,72.58
2022-12-08T17:24:28.929Z,72.63
2022-12-08T17:29:49.439Z,72.58
2022-12-08T17:35:10.886Z,72.92
2022-12-08T17:40:31.641Z,73.04
2022-12-08T17:45:52.823Z,72.94
2022-12-08T17:51:14.593Z,73.15
2022-12-08T17:56:34.985Z,73.45
2022-12-08T18:01:57.226Z,73.40
2022-12-08T18:07:17.670Z,73.54
2022-12-08T18:12:38.771Z,73.20
2022-12-08T18:17:59.799Z,73.56
2022-12-08T18:23:20.347Z,73.70
2022-12-08T18:28:41.078Z,73.69
2022-12-08T18:34:02.111Z,73.89
2022-12-08T18:39:28.538Z,74.05
2022-12-08T18:44:56.209Z,73.91
2022-12-08T18:50:17.514Z,74.06
2022-12-08T18:55:38.377Z,74.30
2022-12-08T19:00:58.870Z,74.35
2022-12-08T19:06:19.629Z,74.36
2022-12-08T19:11:41.251Z,74.63
2022-12-08T19:17:02.426Z,74.68
2022-12-08T19:22:22.884Z,74.81
2022-12-08T19:27:44.095Z,74.95
2022-12-08T19:33:04.612Z,75.07
2022-12-08T19:38:25.111Z,75.04
2022-12-08T19:44:04.060Z,75.43
2022-12-08T19:49:24.630Z,75.45
2022-12-08T19:54:45.907Z,75.47
2022-12-08T20:00:08.523Z,75.52
2022-12-08T20:05:31.525Z,75.60
2022-12-08T20:10:55.965Z,75.61
2022-12-08T20:16:17.012Z,75.73
2022-12-08T20:21:39.545Z,76.11
2022-12-08T20:26:59.995Z,76.15
2022-12-08T20:32:20.749Z,76.30
2022-12-08T20:37:41.642Z,76.57
2022-12-08T20:43:02.494Z,76.88
2022-12-08T20:48:23.282Z,77.02
2022-12-08T20:53:44.758Z,77.04
2022-12-08T20:59:05.509Z,77.16
2022-12-08T21:04:27.597Z,77.06
2022-12-08T21:09:52.852Z,77.23
2022-12-08T21:15:13.710Z,77.54
2022-12-08T21:20:34.414Z,77.47
2022-12-08T21:25:55.003Z,77.59
2022-12-08T21:31:17.661Z,77.52
2022-12-08T21:36:38.462Z,77.69
2022-12-08T21:42:21.504Z,77.51
2022-12-08T21:47:44.791Z,77.52
2022-12-08T21:53:05.574Z,77.43
2022-12-08T21:58:26.441Z,77.56
2022-12-08T22:03:47.382Z,77.49
2022-12-08T22:09:10.321Z,77.87
2022-12-08T22:14:31.071Z,77.84
2022-12-08T22:19:51.641Z,77.93
2022-12-08T22:25:12.615Z,77.85
2022-12-08T22:30:38.891Z,77.81
2022-12-08T22:36:08.178Z,77.89
2022-12-08T22:41:31.027Z,78.13
2022-12-08T22:46:51.927Z,78.15
2022-12-08T22:52:12.936Z,78.34
2022-12-08T22:57:33.299Z,78.47
2022-12-08T23:02:53.933Z,78.62
2022-12-08T23:08:16.458Z,78.63
2022-12-08T23:13:39.351Z,78.84
2022-12-08T23:19:00.482Z,79.15
2022-12-08T23:24:21.681Z,79.06
2022-12-08T23:29:42.312Z,79.11
2022-12-08T23:35:03.002Z,79.19
2022-12-08T23:40:24.154Z,79.18
2022-12-08T23:45:45.158Z,79.29
2022-12-08T23:51:05.932Z,79.36
2022-12-08T23:56:30.277Z,79.38
